Daphne, AL

3:16 AM CST on February 06, 2016 (GMT -0600)
Daphne City Hall | | Change Station
CLOSE
Current Station
Personal Weather Station
Location: DAPHNE, AL
Elevation: 155 ft
Nearby Weather Stations

Elev 155 ft 30.60 °N, 87.90 °W | Updated 15 minutes ago

Clear
Clear
39.7 °F
Feels Like 40 °F
N
1.0
Wind Variable Wind from ENE
Gusts 3.0 mph

Today
High -- | Low -- °F
--% Chance of Precip.
Yesterday
High -- | Low -- °F
Precip. -- in
Pressure 30.37 in
Visibility 10.0 miles
Clouds Clear
Windchill 40 °F
Dew Point 23 °F
Humidity 51%
Rainfall 0.00 in
Snow Depth Not available.
6:39 AM 5:31 PM
Waning Crescent, 6% visible
METAR KBFM 060853Z AUTO 31005KT 10SM CLR 03/M03 A3037 RMK AO2 SLP283 T00281028 56005
Pressure 30.37 in
Visibility 10.0 miles
Clouds Clear
Windchill 40 °F
Dew Point 23 °F
Humidity 51%
Rainfall 0.00 in
Snow Depth Not available.
6:39 AM 5:31 PM
Waning Crescent, 6% visible
METAR KBFM 060853Z AUTO 31005KT 10SM CLR 03/M03 A3037 RMK AO2 SLP283 T00281028 56005

10-Day Weather Forecast

Almanac

Astronomy

Feb. 06, 2016 Rise Set
Actual Time
Civil Twilight
Nautical Twilight
Astronomical Twilight
Moon
Length of Visible Light
Length of Day
Tomorrow will be .
, % of the Moon is Illuminated

Today's Extremes

State Highs State Lows

Community

WunderPhotos

Upload Photos

1,890,933 photos uploaded!

WunderBlog® & News

Nearby

Air Quality

  Air Quality AQ Index Pollutant
Not available.

Snow Depth

Station Depth Elevation

Earthquake Activity

City Distance Mag. Time & Date
Minimum magnitude displayed is 2.5.

Coastal Water Temperatures

Place Temperature

Stations

Nearby Weather Stations

Station Location Temp. Windchill Dew Point Humidity Wind Precip. Elev Updated Type
                   

Watches & Warnings

There are currently no watches in effect.